createdAt,value
2018-04-01T00:00:23.214Z,19.40
2018-04-01T00:01:23.192Z,19.60
2018-04-01T00:02:23.170Z,18.00
2018-04-01T00:03:23.147Z,16.90
2018-04-01T00:04:23.126Z,18.90
2018-04-01T00:05:23.108Z,17.80
2018-04-01T00:06:23.087Z,19.10
2018-04-01T00:07:23.062Z,20.00
2018-04-01T00:08:23.043Z,19.90
2018-04-01T00:09:23.024Z,19.20
2018-04-01T00:10:22.997Z,19.20
2018-04-01T00:11:22.974Z,18.90
2018-04-01T00:12:22.954Z,21.10
2018-04-01T00:13:22.934Z,22.20
2018-04-01T00:14:22.912Z,19.40
2018-04-01T00:15:22.922Z,21.90
2018-04-01T00:16:22.866Z,16.60
2018-04-01T00:17:22.847Z,15.10
2018-04-01T00:18:22.824Z,15.70
2018-04-01T00:19:22.802Z,15.40
2018-04-01T00:20:22.780Z,13.00
2018-04-01T00:21:22.761Z,17.70
2018-04-01T00:22:22.740Z,15.70
2018-04-01T00:23:22.714Z,15.30
2018-04-01T00:24:22.692Z,15.40
2018-04-01T00:25:22.674Z,17.20
2018-04-01T00:26:22.653Z,15.60
2018-04-01T00:27:22.680Z,17.60
2018-04-01T00:28:22.605Z,17.50
2018-04-01T00:29:22.588Z,16.10
2018-04-01T00:30:22.564Z,14.60
2018-04-01T00:31:22.540Z,15.90
2018-04-01T00:32:22.526Z,14.80
2018-04-01T00:33:22.501Z,14.90
2018-04-01T00:34:22.478Z,13.20
2018-04-01T00:35:22.455Z,13.60
2018-04-01T00:36:22.434Z,14.00
2018-04-01T00:37:22.415Z,12.90
2018-04-01T00:38:22.390Z,12.90
2018-04-01T00:39:22.366Z,12.60
2018-04-01T00:40:22.350Z,15.10
2018-04-01T00:41:22.325Z,13.20
2018-04-01T00:42:22.303Z,12.10
2018-04-01T00:43:22.280Z,11.40
2018-04-01T00:44:22.255Z,11.30
2018-04-01T00:45:22.238Z,12.90
2018-04-01T00:46:22.214Z,12.10
2018-04-01T00:47:22.193Z,10.40
2018-04-01T00:48:22.171Z,11.40
2018-04-01T00:49:22.158Z,10.30
2018-04-01T00:50:22.127Z,9.70
2018-04-01T00:51:22.110Z,9.60
2018-04-01T00:52:22.085Z,10.20
2018-04-01T00:53:22.063Z,9.90
2018-04-01T00:54:22.042Z,10.20
2018-04-01T00:55:22.019Z,8.90
2018-04-01T00:56:22.039Z,9.20
2018-04-01T00:57:21.973Z,10.70
2018-04-01T00:58:21.989Z,10.20
2018-04-01T00:59:21.928Z,9.40
2018-04-01T01:00:21.915Z,8.90
2018-04-01T01:01:21.891Z,10.60
2018-04-01T01:02:21.865Z,9.60
2018-04-01T01:03:21.844Z,9.30
2018-04-01T01:04:21.860Z,8.70
2018-04-01T01:05:21.804Z,7.80
2018-04-01T01:06:21.785Z,9.00
2018-04-01T01:07:21.755Z,8.90
2018-04-01T01:08:21.740Z,9.80
2018-04-01T01:09:21.712Z,9.10
2018-04-01T01:10:21.689Z,9.10
2018-04-01T01:11:21.667Z,9.40
2018-04-01T01:12:21.644Z,8.70
2018-04-01T01:13:21.625Z,10.10
2018-04-01T01:14:21.600Z,9.90
2018-04-01T01:15:21.579Z,10.20
2018-04-01T01:16:21.557Z,8.90
2018-04-01T01:17:21.538Z,9.80
2018-04-01T01:18:21.519Z,9.20
2018-04-01T01:19:21.494Z,9.50
2018-04-01T01:20:21.471Z,10.80
2018-04-01T01:21:21.447Z,10.20
2018-04-01T01:22:21.530Z,9.70
2018-04-01T01:23:21.404Z,10.50
2018-04-01T01:24:21.382Z,10.30
2018-04-01T01:25:21.361Z,9.40
2018-04-01T01:26:21.346Z,9.70
2018-04-01T01:27:21.316Z,9.40
2018-04-01T01:28:21.294Z,11.20
2018-04-01T01:29:21.274Z,9.30
2018-04-01T01:30:21.249Z,9.90
2018-04-01T01:31:21.229Z,9.60
2018-04-01T01:32:21.209Z,10.40
2018-04-01T01:33:21.194Z,10.10
2018-04-01T01:34:21.161Z,9.80
2018-04-01T01:35:21.154Z,9.90
2018-04-01T01:36:21.117Z,9.60
2018-04-01T01:37:21.097Z,9.00
2018-04-01T01:38:21.073Z,9.40
2018-04-01T01:39:21.051Z,9.00
2018-04-01T01:40:21.040Z,9.80
2018-04-01T01:41:21.010Z,10.50
2018-04-01T01:42:20.989Z,10.60
2018-04-01T01:43:20.972Z,10.50
2018-04-01T01:44:20.943Z,9.80
2018-04-01T01:45:20.925Z,11.20
2018-04-01T01:46:20.900Z,9.30
2018-04-01T01:47:20.872Z,10.30
2018-04-01T01:48:20.854Z,10.20
2018-04-01T01:49:20.841Z,10.10
2018-04-01T01:50:20.814Z,10.80
2018-04-01T01:51:20.789Z,10.80
2018-04-01T01:52:20.768Z,12.00
2018-04-01T01:53:20.742Z,10.80
2018-04-01T01:54:20.720Z,11.90
2018-04-01T01:55:20.698Z,12.20
2018-04-01T01:56:20.679Z,11.20
2018-04-01T01:57:20.654Z,10.90
2018-04-01T01:58:20.632Z,10.90
2018-04-01T01:59:20.615Z,11.30
2018-04-01T02:00:20.590Z,11.20
2018-04-01T02:01:20.567Z,10.60
2018-04-01T02:02:20.544Z,10.60
2018-04-01T02:03:20.523Z,11.20
2018-04-01T02:04:20.499Z,11.50
2018-04-01T02:05:20.480Z,10.30
2018-04-01T02:06:20.458Z,10.30
2018-04-01T02:07:20.440Z,9.50
2018-04-01T02:08:20.410Z,9.90
2018-04-01T02:09:20.394Z,9.60
2018-04-01T02:10:20.369Z,10.30
2018-04-01T02:11:20.346Z,10.60
2018-04-01T02:12:20.330Z,10.20
2018-04-01T02:13:20.303Z,10.30
2018-04-01T02:14:20.278Z,9.70
2018-04-01T02:15:20.256Z,10.40
2018-04-01T02:16:20.234Z,10.80
2018-04-01T02:17:20.213Z,10.80
2018-04-01T02:18:20.190Z,9.60
2018-04-01T02:19:20.174Z,10.00
2018-04-01T02:20:20.147Z,9.60
2018-04-01T02:21:20.124Z,9.80
2018-04-01T02:22:20.103Z,10.10
2018-04-01T02:23:20.085Z,8.70
2018-04-01T02:24:20.062Z,9.70
2018-04-01T02:25:20.090Z,9.80
2018-04-01T02:26:20.018Z,9.90
2018-04-01T02:27:20.023Z,10.40
2018-04-01T02:28:19.973Z,9.30
2018-04-01T02:29:19.951Z,10.00
2018-04-01T02:30:19.929Z,10.20
2018-04-01T02:31:19.979Z,9.60
2018-04-01T02:32:19.886Z,9.90
2018-04-01T02:33:19.864Z,9.80
2018-04-01T02:34:19.840Z,10.80
2018-04-01T02:35:19.872Z,9.50
2018-04-01T02:36:19.799Z,9.40
2018-04-01T02:37:19.829Z,9.20
2018-04-01T02:38:19.754Z,9.00
2018-04-01T02:39:19.737Z,8.70
2018-04-01T02:40:19.705Z,8.70
2018-04-01T02:41:19.687Z,8.60
2018-04-01T02:42:19.664Z,8.20
2018-04-01T02:43:19.796Z,8.90
2018-04-01T02:44:19.619Z,9.40
2018-04-01T02:45:19.673Z,9.80
2018-04-01T02:46:19.574Z,8.60
2018-04-01T02:47:19.553Z,8.30
2018-04-01T02:48:19.534Z,7.30
2018-04-01T02:49:19.557Z,7.80
2018-04-01T02:50:19.487Z,7.60
2018-04-01T02:51:19.492Z,8.00
2018-04-01T02:52:19.443Z,7.60
2018-04-01T02:53:19.508Z,8.40
2018-04-01T02:54:19.400Z,8.70
2018-04-01T02:55:19.481Z,8.40
2018-04-01T02:56:19.353Z,8.30
2018-04-01T02:57:19.483Z,7.50
2018-04-01T02:58:19.326Z,7.80
2018-04-01T02:59:19.293Z,8.20
2018-04-01T03:00:19.264Z,8.10
2018-04-01T03:01:19.245Z,7.70
2018-04-01T03:02:19.218Z,7.60
2018-04-01T03:03:19.203Z,7.30
2018-04-01T03:04:19.179Z,7.30
2018-04-01T03:05:19.156Z,8.00
2018-04-01T03:06:19.139Z,6.80
2018-04-01T03:07:19.113Z,7.00
2018-04-01T03:08:19.087Z,6.90
2018-04-01T03:09:19.077Z,7.30
2018-04-01T03:10:19.044Z,7.20
2018-04-01T03:11:19.102Z,7.30
2018-04-01T03:12:19.005Z,7.20
2018-04-01T03:13:18.981Z,6.20
2018-04-01T03:14:18.958Z,6.40
2018-04-01T03:15:18.938Z,6.60
2018-04-01T03:16:18.913Z,6.50
2018-04-01T03:17:18.889Z,7.90
2018-04-01T03:18:18.868Z,7.70
2018-04-01T03:19:18.844Z,7.20
2018-04-01T03:20:18.825Z,7.60
2018-04-01T03:21:18.802Z,6.30
2018-04-01T03:22:18.785Z,5.60
2018-04-01T03:23:18.763Z,6.90
2018-04-01T03:24:18.734Z,5.40
2018-04-01T03:25:18.714Z,6.60
2018-04-01T03:26:18.691Z,5.80
2018-04-01T03:27:18.667Z,5.00
2018-04-01T03:28:18.651Z,5.40
2018-04-01T03:29:18.627Z,5.70
2018-04-01T03:30:18.602Z,6.30
2018-04-01T03:31:18.588Z,6.10
2018-04-01T03:32:18.558Z,6.30
2018-04-01T03:33:18.545Z,5.90
2018-04-01T03:34:18.514Z,6.20
2018-04-01T03:35:18.492Z,6.20
2018-04-01T03:36:18.471Z,5.70
2018-04-01T03:37:18.452Z,5.90
2018-04-01T03:38:18.428Z,5.70
2018-04-01T03:39:18.405Z,7.10
2018-04-01T03:40:18.382Z,8.60
2018-04-01T03:41:18.365Z,7.20
2018-04-01T03:42:18.343Z,6.60
2018-04-01T03:43:18.313Z,7.60
2018-04-01T03:44:18.295Z,6.40
2018-04-01T03:45:18.269Z,6.40
2018-04-01T03:46:18.249Z,6.20
2018-04-01T03:47:18.224Z,6.20
2018-04-01T03:48:18.204Z,6.20
2018-04-01T03:49:18.181Z,6.00
2018-04-01T03:50:18.160Z,6.30
2018-04-01T03:51:18.145Z,6.80
2018-04-01T03:52:18.114Z,6.60
2018-04-01T03:53:18.099Z,6.80
2018-04-01T03:54:18.074Z,6.90
2018-04-01T03:55:18.049Z,8.40
2018-04-01T03:56:18.034Z,8.50
2018-04-01T03:57:18.004Z,8.80
2018-04-01T03:58:17.985Z,8.90
2018-04-01T03:59:17.964Z,7.70
2018-04-01T04:00:17.938Z,7.10
2018-04-01T04:01:17.918Z,7.60
2018-04-01T04:02:17.893Z,8.10
2018-04-01T04:03:17.883Z,6.40
2018-04-01T04:04:17.852Z,6.60
2018-04-01T04:05:17.827Z,6.90
2018-04-01T04:06:17.811Z,7.40
2018-04-01T04:07:17.784Z,7.40
2018-04-01T04:08:17.762Z,7.00
2018-04-01T04:09:17.741Z,7.50
2018-04-01T04:10:17.716Z,7.40
2018-04-01T04:11:17.694Z,6.80
2018-04-01T04:12:17.673Z,7.90
2018-04-01T04:13:17.653Z,7.20
2018-04-01T04:14:17.630Z,6.80
2018-04-01T04:15:17.606Z,7.20
2018-04-01T04:16:17.634Z,7.80
2018-04-01T04:17:17.566Z,7.40
2018-04-01T04:18:17.592Z,7.40
2018-04-01T04:19:17.520Z,7.80
2018-04-01T04:20:17.506Z,7.20
2018-04-01T04:21:17.473Z,7.30
2018-04-01T04:22:17.502Z,7.90
2018-04-01T04:23:17.432Z,7.40
2018-04-01T04:24:17.456Z,8.50
2018-04-01T04:25:17.383Z,8.10
2018-04-01T04:26:17.415Z,7.10
2018-04-01T04:27:17.347Z,7.50
2018-04-01T04:28:17.370Z,7.80
2018-04-01T04:29:17.299Z,7.20
2018-04-01T04:30:17.278Z,7.10
2018-04-01T04:31:17.251Z,6.50
2018-04-01T04:32:17.233Z,7.10
2018-04-01T04:33:17.209Z,7.20
2018-04-01T04:34:17.184Z,6.90
2018-04-01T04:35:17.161Z,7.40
2018-04-01T04:36:17.194Z,8.20
2018-04-01T04:37:17.122Z,8.20
2018-04-01T04:38:17.097Z,8.30
2018-04-01T04:39:17.072Z,8.70
2018-04-01T04:40:17.054Z,8.60
2018-04-01T04:41:17.031Z,7.70
2018-04-01T04:42:17.007Z,7.80
2018-04-01T04:43:16.984Z,8.50
2018-04-01T04:44:16.964Z,7.90
2018-04-01T04:45:16.944Z,9.60
2018-04-01T04:46:16.919Z,8.30
2018-04-01T04:47:16.897Z,8.00
2018-04-01T04:48:16.878Z,8.60
2018-04-01T04:49:16.851Z,7.90
2018-04-01T04:50:16.833Z,8.00
2018-04-01T04:51:16.811Z,8.10
2018-04-01T04:52:16.788Z,8.20
2018-04-01T04:53:16.766Z,8.20
2018-04-01T04:54:16.743Z,8.30
2018-04-01T04:55:16.723Z,8.30
2018-04-01T04:56:16.700Z,7.70
2018-04-01T04:57:16.684Z,8.40
2018-04-01T04:58:16.659Z,9.00
2018-04-01T04:59:16.639Z,8.40
2018-04-01T05:00:16.607Z,9.20
2018-04-01T05:01:16.590Z,8.30
2018-04-01T05:02:16.570Z,8.70
2018-04-01T05:03:16.545Z,8.80
2018-04-01T05:04:16.524Z,8.80
2018-04-01T05:05:16.500Z,9.70
2018-04-01T05:06:16.483Z,9.20
2018-04-01T05:07:16.456Z,9.40
2018-04-01T05:08:16.436Z,9.90
2018-04-01T05:09:16.413Z,9.70
2018-04-01T05:10:16.396Z,9.80
2018-04-01T05:11:16.370Z,9.20
2018-04-01T05:12:16.344Z,9.40
2018-04-01T05:13:16.324Z,9.50
2018-04-01T05:14:16.303Z,9.40
2018-04-01T05:15:16.351Z,11.00
2018-04-01T05:16:16.268Z,10.10
2018-04-01T05:17:16.234Z,10.20
2018-04-01T05:18:16.215Z,10.60
2018-04-01T05:19:16.194Z,10.80
2018-04-01T05:20:16.169Z,10.80
2018-04-01T05:21:16.147Z,11.20
2018-04-01T05:22:16.125Z,10.10
2018-04-01T05:23:16.102Z,10.60
2018-04-01T05:24:16.084Z,10.50
2018-04-01T05:25:16.058Z,9.10
2018-04-01T05:26:16.035Z,9.70
2018-04-01T05:27:16.013Z,8.90
2018-04-01T05:28:16.045Z,9.90
2018-04-01T05:29:15.970Z,9.90
2018-04-01T05:30:15.946Z,9.50
2018-04-01T05:31:15.925Z,10.70
2018-04-01T05:32:15.903Z,10.60
2018-04-01T05:33:15.879Z,10.00
2018-04-01T05:34:15.858Z,10.30
2018-04-01T05:35:15.838Z,9.60
2018-04-01T05:36:15.813Z,9.30
2018-04-01T05:37:15.790Z,9.80
2018-04-01T05:38:15.769Z,10.60
2018-04-01T05:39:15.752Z,9.90
2018-04-01T05:40:15.732Z,10.30
2018-04-01T05:41:15.710Z,9.70
2018-04-01T05:42:15.684Z,9.40
2018-04-01T05:43:15.663Z,10.10
2018-04-01T05:44:15.638Z,9.30
2018-04-01T05:45:15.619Z,9.70
2018-04-01T05:46:15.602Z,8.80
2018-04-01T05:47:15.569Z,9.10
2018-04-01T05:48:15.547Z,10.30
2018-04-01T05:49:15.553Z,9.80
2018-04-01T05:50:15.503Z,8.80
2018-04-01T05:51:15.482Z,8.70
2018-04-01T05:52:15.457Z,8.50
2018-04-01T05:53:15.444Z,8.80
2018-04-01T05:54:15.417Z,9.30
2018-04-01T05:55:15.393Z,9.20
2018-04-01T05:56:15.374Z,8.20
2018-04-01T05:57:15.350Z,8.30
2018-04-01T05:58:15.334Z,7.40
2018-04-01T05:59:15.304Z,7.40
2018-04-01T06:00:15.285Z,7.20
2018-04-01T06:01:15.267Z,8.10
2018-04-01T06:02:15.254Z,6.60
2018-04-01T06:03:15.219Z,7.00
2018-04-01T06:04:15.193Z,7.50
2018-04-01T06:05:15.171Z,7.80
2018-04-01T06:06:15.152Z,8.40
2018-04-01T06:07:15.131Z,7.70
2018-04-01T06:08:15.107Z,7.90
2018-04-01T06:09:15.088Z,7.30
2018-04-01T06:10:15.063Z,6.90
2018-04-01T06:11:15.046Z,7.10
2018-04-01T06:12:15.078Z,7.50
2018-04-01T06:13:15.001Z,6.40
2018-04-01T06:14:14.975Z,7.10
2018-04-01T06:15:14.951Z,6.30
2018-04-01T06:16:14.939Z,7.00
2018-04-01T06:17:14.920Z,6.10
2018-04-01T06:18:14.887Z,6.10
2018-04-01T06:19:14.862Z,6.90
2018-04-01T06:20:14.839Z,6.80
2018-04-01T06:21:14.830Z,6.30
2018-04-01T06:22:14.796Z,6.00
2018-04-01T06:23:14.773Z,6.20
2018-04-01T06:24:14.753Z,6.10
2018-04-01T06:25:14.729Z,5.90
2018-04-01T06:26:14.710Z,5.10
2018-04-01T06:27:14.690Z,5.00
2018-04-01T06:28:14.674Z,4.70
2018-04-01T06:29:14.650Z,4.50
2018-04-01T06:30:14.622Z,4.50
2018-04-01T06:31:14.597Z,5.00
2018-04-01T06:32:14.580Z,4.70
2018-04-01T06:33:14.554Z,4.80
2018-04-01T06:34:14.530Z,4.70
2018-04-01T06:35:14.509Z,4.60
2018-04-01T06:36:14.492Z,5.40
2018-04-01T06:37:14.467Z,4.30
2018-04-01T06:38:14.443Z,4.50
2018-04-01T06:39:14.428Z,4.60
2018-04-01T06:40:14.404Z,5.10
2018-04-01T06:41:14.380Z,4.30
2018-04-01T06:42:14.357Z,4.30
2018-04-01T06:43:14.334Z,4.70
2018-04-01T06:44:14.311Z,4.60
2018-04-01T06:45:14.294Z,4.80
2018-04-01T06:46:14.269Z,4.40
2018-04-01T06:47:14.245Z,4.90
2018-04-01T06:48:14.224Z,4.60
2018-04-01T06:49:14.203Z,4.80
2018-04-01T06:50:14.185Z,4.10
2018-04-01T06:51:14.162Z,4.40
2018-04-01T06:52:14.144Z,4.40
2018-04-01T06:53:14.115Z,4.10
2018-04-01T06:54:14.092Z,4.50
2018-04-01T06:55:14.082Z,4.20
2018-04-01T06:56:14.051Z,4.90
2018-04-01T06:57:14.083Z,5.30
2018-04-01T06:58:14.005Z,6.30
2018-04-01T06:59:14.034Z,8.90
2018-04-01T07:00:13.964Z,4.90
2018-04-01T07:01:14.015Z,5.20
2018-04-01T07:02:13.921Z,5.60
2018-04-01T07:03:14.043Z,5.80
2018-04-01T07:04:13.873Z,5.70
2018-04-01T07:05:13.853Z,5.60
2018-04-01T07:06:13.833Z,6.10
2018-04-01T07:07:13.815Z,7.30
2018-04-01T07:08:13.785Z,7.30
2018-04-01T07:09:13.762Z,11.00
2018-04-01T07:10:13.747Z,10.90
2018-04-01T07:11:13.832Z,10.00
2018-04-01T07:12:13.715Z,5.70
2018-04-01T07:13:13.691Z,9.80
2018-04-01T07:14:13.662Z,6.10
2018-04-01T07:15:13.630Z,5.00
2018-04-01T07:16:13.609Z,6.00
2018-04-01T07:17:13.587Z,5.60
2018-04-01T07:18:13.570Z,5.50
2018-04-01T07:19:13.558Z,5.50
2018-04-01T07:20:13.523Z,6.70
2018-04-01T07:21:13.676Z,5.40
2018-04-01T07:22:13.484Z,6.60
2018-04-01T07:23:13.459Z,6.60
2018-04-01T07:24:13.439Z,6.20
2018-04-01T07:25:13.415Z,7.90
2018-04-01T07:26:13.394Z,6.20
2018-04-01T07:27:13.381Z,8.20
2018-04-01T07:28:13.349Z,7.00
2018-04-01T07:29:13.326Z,6.80
2018-04-01T07:30:13.319Z,7.30
2018-04-01T07:31:13.286Z,7.20
2018-04-01T07:32:13.264Z,7.60
2018-04-01T07:33:13.246Z,8.00
2018-04-01T07:34:13.224Z,7.20
2018-04-01T07:35:13.197Z,7.40
2018-04-01T07:36:13.174Z,9.80
2018-04-01T07:37:13.150Z,9.70
2018-04-01T07:38:13.132Z,8.40
2018-04-01T07:39:13.112Z,7.40
2018-04-01T07:40:13.094Z,7.00
2018-04-01T07:41:13.072Z,7.40
2018-04-01T07:42:13.046Z,8.00
2018-04-01T07:43:13.023Z,7.40
2018-04-01T07:44:13.005Z,7.60
2018-04-01T07:45:12.985Z,7.10
2018-04-01T07:46:12.964Z,7.60
2018-04-01T07:47:12.947Z,7.10
2018-04-01T07:48:12.928Z,8.00
2018-04-01T07:49:12.901Z,6.90
2018-04-01T07:50:12.872Z,6.70
2018-04-01T07:51:12.860Z,8.70
2018-04-01T07:52:12.829Z,8.10
2018-04-01T07:53:12.808Z,7.50
2018-04-01T07:54:12.786Z,6.80
2018-04-01T07:55:12.766Z,7.70
2018-04-01T07:56:12.741Z,7.10
2018-04-01T07:57:12.725Z,6.50
2018-04-01T07:58:12.716Z,5.90
2018-04-01T07:59:12.678Z,6.70
2018-04-01T08:00:12.657Z,6.70
2018-04-01T08:01:12.641Z,5.90
2018-04-01T08:02:12.619Z,6.70
2018-04-01T08:03:12.593Z,5.90
2018-04-01T08:04:12.578Z,5.50
2018-04-01T08:05:12.546Z,5.20
2018-04-01T08:06:12.527Z,5.70
2018-04-01T08:07:12.501Z,5.20
2018-04-01T08:08:12.480Z,5.20
2018-04-01T08:09:12.463Z,6.00
2018-04-01T08:10:12.436Z,5.60
2018-04-01T08:11:12.419Z,5.50
2018-04-01T08:12:12.394Z,5.00
2018-04-01T08:13:12.372Z,5.60
2018-04-01T08:14:12.352Z,4.40
2018-04-01T08:15:12.330Z,4.90
2018-04-01T08:16:12.313Z,4.80
2018-04-01T08:17:12.289Z,4.00
2018-04-01T08:18:12.265Z,4.50
2018-04-01T08:19:12.243Z,4.60
2018-04-01T08:20:12.225Z,5.00
2018-04-01T08:21:12.198Z,5.40
2018-04-01T08:22:12.182Z,4.90
2018-04-01T08:23:12.159Z,4.40
2018-04-01T08:24:12.236Z,3.70
2018-04-01T08:25:12.115Z,4.10
2018-04-01T08:26:12.151Z,4.10
2018-04-01T08:27:12.079Z,4.20
2018-04-01T08:28:12.099Z,4.20
2018-04-01T08:29:12.026Z,3.70
2018-04-01T08:30:12.061Z,3.60
2018-04-01T08:31:11.984Z,3.40
2018-04-01T08:32:12.031Z,3.50
2018-04-01T08:33:11.952Z,35.40
2018-04-01T08:34:12.027Z,12.20
2018-04-01T08:35:11.897Z,8.70
2018-04-01T08:36:11.877Z,12.30
2018-04-01T08:37:11.861Z,3.20
2018-04-01T08:38:11.900Z,2.60
2018-04-01T08:39:11.817Z,2.90
2018-04-01T08:40:11.869Z,2.80
2018-04-01T08:41:11.774Z,2.90
2018-04-01T08:42:11.753Z,3.00
2018-04-01T08:43:11.730Z,3.80
2018-04-01T08:44:11.706Z,2.90
2018-04-01T08:45:11.681Z,2.90
2018-04-01T08:46:11.714Z,2.50
2018-04-01T08:47:11.638Z,2.60
2018-04-01T08:48:11.707Z,2.80
2018-04-01T08:49:11.604Z,2.30
2018-04-01T08:50:11.584Z,2.20
2018-04-01T08:51:11.559Z,2.10
2018-04-01T08:52:11.533Z,2.10
2018-04-01T08:53:11.535Z,2.20
2018-04-01T08:54:11.528Z,2.10
2018-04-01T08:55:11.471Z,2.60
2018-04-01T08:56:11.557Z,2.00
2018-04-01T08:57:11.430Z,2.50
2018-04-01T08:58:11.410Z,2.10
2018-04-01T08:59:11.406Z,2.50
2018-04-01T09:00:11.365Z,2.00
2018-04-01T09:01:11.348Z,1.80
2018-04-01T09:02:11.326Z,1.70
2018-04-01T09:03:11.295Z,1.90
2018-04-01T09:04:11.331Z,1.80
2018-04-01T09:05:11.264Z,2.00
2018-04-01T09:06:11.288Z,2.10
2018-04-01T09:07:11.220Z,1.90
2018-04-01T09:08:11.292Z,1.80
2018-04-01T09:09:11.175Z,2.30
2018-04-01T09:10:11.215Z,2.00
2018-04-01T09:11:11.124Z,1.80
2018-04-01T09:12:11.160Z,1.80
2018-04-01T09:13:11.085Z,1.60
2018-04-01T09:14:11.128Z,2.20
2018-04-01T09:15:11.044Z,2.00
2018-04-01T09:16:11.021Z,1.70
2018-04-01T09:17:10.998Z,1.90
2018-04-01T09:18:10.987Z,2.30
2018-04-01T09:19:10.963Z,1.70
2018-04-01T09:20:10.935Z,1.90
2018-04-01T09:21:10.922Z,1.70
2018-04-01T09:22:10.922Z,2.00
2018-04-01T09:23:10.873Z,1.80
2018-04-01T09:24:10.854Z,2.00
2018-04-01T09:25:10.833Z,1.70
2018-04-01T09:26:10.813Z,1.80
2018-04-01T09:27:10.791Z,1.80
2018-04-01T09:28:10.818Z,1.70
2018-04-01T09:29:10.744Z,2.10
2018-04-01T09:30:10.727Z,2.10
2018-04-01T09:31:10.700Z,2.10
2018-04-01T09:32:10.680Z,1.90
2018-04-01T09:33:10.660Z,1.90
2018-04-01T09:34:10.642Z,2.40
2018-04-01T09:35:10.621Z,2.20
2018-04-01T09:36:10.595Z,1.80
2018-04-01T09:37:10.572Z,2.00
2018-04-01T09:38:10.570Z,2.40
2018-04-01T09:39:10.531Z,2.40
2018-04-01T09:40:10.524Z,2.30
2018-04-01T09:41:10.494Z,2.00
2018-04-01T09:42:10.474Z,2.00
2018-04-01T09:43:10.487Z,2.10
2018-04-01T09:44:10.426Z,2.00
2018-04-01T09:45:10.407Z,2.10
2018-04-01T09:46:10.383Z,2.10
2018-04-01T09:47:10.360Z,2.10
2018-04-01T09:48:10.341Z,1.90
2018-04-01T09:49:10.343Z,1.80
2018-04-01T09:50:10.305Z,2.20
2018-04-01T09:51:10.278Z,2.30
2018-04-01T09:52:10.291Z,2.00
2018-04-01T09:53:10.229Z,2.00
2018-04-01T09:54:10.212Z,2.40
2018-04-01T09:55:10.189Z,1.90
2018-04-01T09:56:10.176Z,2.30
2018-04-01T09:57:10.151Z,2.10
2018-04-01T09:58:10.136Z,2.10
2018-04-01T09:59:10.107Z,2.20
2018-04-01T10:00:10.086Z,2.00
2018-04-01T10:01:10.064Z,2.20
2018-04-01T10:02:10.039Z,2.40
2018-04-01T10:03:10.033Z,1.90
2018-04-01T10:04:10.000Z,2.60
2018-04-01T10:05:09.981Z,2.30
2018-04-01T10:06:09.957Z,2.60
2018-04-01T10:07:09.941Z,2.60
2018-04-01T10:08:09.915Z,2.30
2018-04-01T10:09:09.916Z,1.80
2018-04-01T10:10:09.873Z,1.90
2018-04-01T10:11:09.849Z,2.60
2018-04-01T10:12:09.843Z,2.80
2018-04-01T10:13:09.827Z,2.30
2018-04-01T10:14:09.794Z,2.30
2018-04-01T10:15:09.767Z,2.50
2018-04-01T10:16:09.744Z,3.00
2018-04-01T10:17:09.723Z,2.30
2018-04-01T10:18:09.704Z,2.80
2018-04-01T10:19:09.683Z,2.50
2018-04-01T10:20:09.721Z,2.30
2018-04-01T10:21:09.641Z,3.20
2018-04-01T10:22:09.620Z,2.90
2018-04-01T10:23:09.597Z,2.30
2018-04-01T10:24:09.590Z,2.20
2018-04-01T10:25:09.557Z,2.30
2018-04-01T10:26:09.544Z,2.70
2018-04-01T10:27:09.514Z,3.20
2018-04-01T10:28:09.492Z,3.90
2018-04-01T10:29:09.473Z,2.70
2018-04-01T10:30:09.453Z,2.40
2018-04-01T10:31:09.457Z,2.20
2018-04-01T10:32:09.413Z,2.50
2018-04-01T10:33:09.389Z,2.90
2018-04-01T10:34:09.374Z,2.90
2018-04-01T10:35:09.351Z,2.50
2018-04-01T10:36:09.334Z,2.50
2018-04-01T10:37:09.315Z,2.50
2018-04-01T10:38:09.295Z,2.70
2018-04-01T10:39:09.269Z,2.60
2018-04-01T10:40:09.290Z,2.80
2018-04-01T10:41:09.228Z,2.70
2018-04-01T10:42:09.210Z,2.20
2018-04-01T10:43:09.193Z,2.50
2018-04-01T10:44:09.174Z,2.00
2018-04-01T10:45:09.145Z,2.70
2018-04-01T10:46:09.128Z,2.40
2018-04-01T10:47:09.106Z,2.70
2018-04-01T10:48:09.090Z,2.40
2018-04-01T10:49:09.065Z,2.60
2018-04-01T10:50:09.051Z,2.70
2018-04-01T10:51:09.026Z,2.90
2018-04-01T10:52:09.002Z,2.10
2018-04-01T10:53:08.983Z,2.50
2018-04-01T10:54:08.977Z,2.60
2018-04-01T10:55:08.945Z,2.30
2018-04-01T10:56:08.923Z,2.20
2018-04-01T10:57:08.905Z,2.40
2018-04-01T10:58:08.888Z,2.00
2018-04-01T10:59:08.865Z,2.20
2018-04-01T11:00:08.843Z,1.80
2018-04-01T11:01:08.823Z,2.10
2018-04-01T11:02:08.805Z,2.20
2018-04-01T11:03:08.783Z,2.30
2018-04-01T11:04:08.763Z,2.40
2018-04-01T11:05:08.744Z,2.00
2018-04-01T11:06:08.724Z,2.40
2018-04-01T11:07:08.701Z,2.20
2018-04-01T11:08:08.682Z,2.50
2018-04-01T11:09:08.667Z,2.70
2018-04-01T11:10:08.644Z,2.90
2018-04-01T11:11:08.623Z,3.30
2018-04-01T11:12:08.603Z,2.80
2018-04-01T11:13:08.583Z,3.50
2018-04-01T11:14:08.564Z,3.00
2018-04-01T11:15:08.547Z,2.90
2018-04-01T11:16:08.523Z,3.10
2018-04-01T11:17:08.504Z,2.80
2018-04-01T11:18:08.485Z,2.60
2018-04-01T11:19:08.465Z,2.70
2018-04-01T11:20:08.449Z,2.70
2018-04-01T11:21:08.420Z,3.20
2018-04-01T11:22:08.402Z,3.20
2018-04-01T11:23:08.381Z,2.80
2018-04-01T11:24:08.361Z,3.60
2018-04-01T11:25:08.344Z,2.90
2018-04-01T11:26:08.321Z,2.90
2018-04-01T11:27:08.300Z,2.70
2018-04-01T11:28:08.282Z,3.00
2018-04-01T11:29:08.264Z,2.60
2018-04-01T11:30:08.244Z,2.80
2018-04-01T11:31:08.222Z,3.10
2018-04-01T11:32:08.204Z,2.70
2018-04-01T11:33:08.177Z,2.80
2018-04-01T11:34:08.158Z,2.80
2018-04-01T11:35:08.242Z,2.90
2018-04-01T11:36:08.120Z,2.80
2018-04-01T11:37:08.103Z,3.40
2018-04-01T11:38:08.103Z,2.80
2018-04-01T11:39:08.062Z,2.70
2018-04-01T11:40:08.097Z,3.20
2018-04-01T11:41:08.124Z,3.60
2018-04-01T11:42:08.000Z,4.60
2018-04-01T11:43:07.986Z,3.80
2018-04-01T11:44:07.968Z,3.00
2018-04-01T11:45:07.945Z,3.00
2018-04-01T11:46:07.917Z,2.90
2018-04-01T11:47:07.896Z,3.40
2018-04-01T11:48:07.882Z,2.90
2018-04-01T11:49:07.860Z,3.30
2018-04-01T11:50:07.838Z,2.90
2018-04-01T11:51:07.835Z,2.80
2018-04-01T11:52:07.794Z,3.50
2018-04-01T11:53:07.802Z,3.30
2018-04-01T11:54:07.754Z,3.10
2018-04-01T11:55:07.734Z,3.40
2018-04-01T11:56:07.713Z,3.10
2018-04-01T11:57:07.693Z,3.00
2018-04-01T11:58:07.672Z,2.70
2018-04-01T11:59:07.704Z,3.10
2018-04-01T12:00:07.640Z,3.00
2018-04-01T12:01:07.614Z,3.30
2018-04-01T12:02:07.603Z,3.80
2018-04-01T12:03:07.685Z,3.00
2018-04-01T12:04:07.557Z,3.30
2018-04-01T12:05:07.532Z,2.70
2018-04-01T12:06:07.512Z,3.10
2018-04-01T12:07:07.493Z,3.20
2018-04-01T12:08:07.473Z,2.70
2018-04-01T12:09:07.452Z,2.60
2018-04-01T12:10:07.439Z,2.70
2018-04-01T12:11:07.568Z,3.20
2018-04-01T12:12:07.388Z,2.60
2018-04-01T12:13:07.371Z,2.70
2018-04-01T12:14:07.352Z,3.30
2018-04-01T12:15:07.339Z,3.30
2018-04-01T12:16:07.314Z,2.60
2018-04-01T12:17:07.444Z,2.80
2018-04-01T12:18:07.270Z,2.40
2018-04-01T12:19:07.255Z,2.70
2018-04-01T12:20:07.267Z,2.60
2018-04-01T12:21:07.221Z,2.60
2018-04-01T12:22:07.195Z,2.70
2018-04-01T12:23:07.236Z,3.10
2018-04-01T12:24:07.149Z,2.80
2018-04-01T12:25:07.129Z,2.70
2018-04-01T12:26:07.110Z,2.70
2018-04-01T12:27:07.096Z,2.90
2018-04-01T12:28:07.076Z,3.00
2018-04-01T12:29:07.105Z,3.10
2018-04-01T12:30:07.032Z,3.30
2018-04-01T12:31:07.010Z,2.80
2018-04-01T12:32:06.991Z,2.80
2018-04-01T12:33:06.972Z,2.70
2018-04-01T12:34:06.947Z,3.10
2018-04-01T12:35:06.931Z,2.90
2018-04-01T12:36:06.918Z,2.70
2018-04-01T12:37:06.889Z,3.20
2018-04-01T12:38:06.922Z,2.90
2018-04-01T12:39:06.855Z,3.00
2018-04-01T12:40:06.835Z,3.10
2018-04-01T12:41:06.812Z,2.60
2018-04-01T12:42:06.786Z,2.80
2018-04-01T12:43:06.764Z,2.70
2018-04-01T12:44:06.755Z,2.80
2018-04-01T12:45:06.729Z,2.90
2018-04-01T12:46:06.708Z,2.70
2018-04-01T12:47:06.689Z,3.00
2018-04-01T12:48:06.668Z,2.80
2018-04-01T12:49:06.653Z,2.50
2018-04-01T12:50:06.625Z,2.60
2018-04-01T12:51:06.606Z,2.90
2018-04-01T12:52:06.594Z,2.50
2018-04-01T12:53:06.583Z,2.60
2018-04-01T12:54:06.547Z,3.00
2018-04-01T12:55:06.524Z,2.90
2018-04-01T12:56:06.499Z,2.70
2018-04-01T12:57:06.483Z,2.50
2018-04-01T12:58:06.460Z,3.00
2018-04-01T12:59:06.442Z,2.80
2018-04-01T13:00:06.422Z,3.40
2018-04-01T13:01:06.405Z,3.30
2018-04-01T13:02:06.379Z,3.00
2018-04-01T13:03:06.359Z,2.80
2018-04-01T13:04:06.337Z,2.80
2018-04-01T13:05:06.316Z,2.80
2018-04-01T13:06:06.295Z,3.00
2018-04-01T13:07:06.280Z,2.80
2018-04-01T13:08:06.258Z,2.90
2018-04-01T13:09:06.234Z,3.10
2018-04-01T13:10:06.211Z,2.40
2018-04-01T13:11:06.193Z,3.30
2018-04-01T13:12:06.173Z,3.00
2018-04-01T13:13:06.155Z,3.00
2018-04-01T13:14:06.138Z,3.40